createdAt,value
2023-06-12T00:00:19.375Z,16.39
2023-06-12T00:01:36.909Z,16.37
2023-06-12T00:02:38.460Z,16.36
2023-06-12T00:03:46.113Z,16.35
2023-06-12T00:04:47.979Z,16.34
2023-06-12T00:05:50.116Z,16.32
2023-06-12T00:06:51.771Z,16.30
2023-06-12T00:07:56.661Z,16.29
2023-06-12T00:08:58.788Z,16.27
2023-06-12T00:10:00.401Z,16.27
2023-06-12T00:11:07.692Z,16.25
2023-06-12T00:12:09.523Z,16.24
2023-06-12T00:13:12.422Z,16.23
2023-06-12T00:14:13.893Z,16.21
2023-06-12T00:15:15.482Z,16.20
2023-06-12T00:16:17.306Z,16.18
2023-06-12T00:17:18.867Z,16.17
2023-06-12T00:18:20.304Z,16.16
2023-06-12T00:19:22.484Z,16.14
2023-06-12T00:20:24.098Z,16.13
2023-06-12T00:21:25.738Z,16.12
2023-06-12T00:22:27.196Z,16.10
2023-06-12T00:23:29.333Z,16.08
2023-06-12T00:24:30.783Z,16.06
2023-06-12T00:25:33.580Z,16.05
2023-06-12T00:26:35.811Z,16.03
2023-06-12T00:27:37.247Z,16.01
2023-06-12T00:28:38.843Z,15.99
2023-06-12T00:29:40.402Z,15.99
2023-06-12T00:30:41.943Z,15.97
2023-06-12T00:31:43.529Z,15.95
2023-06-12T00:32:45.578Z,15.93
2023-06-12T00:33:48.468Z,15.92
2023-06-12T00:34:50.279Z,15.90
2023-06-12T00:35:52.189Z,15.88
2023-06-12T00:36:53.723Z,15.87
2023-06-12T00:37:55.624Z,15.85
2023-06-12T00:38:57.156Z,15.84
2023-06-12T00:39:58.716Z,15.83
2023-06-12T00:41:00.236Z,15.82
2023-06-12T00:42:01.679Z,15.81
2023-06-12T00:43:03.530Z,15.78
2023-06-12T00:44:04.933Z,15.77
2023-06-12T00:45:07.127Z,15.75
2023-06-12T00:46:09.526Z,15.74
2023-06-12T00:47:11.566Z,15.72
2023-06-12T00:48:13.674Z,15.71
2023-06-12T00:49:15.293Z,15.70
2023-06-12T00:50:18.557Z,15.67
2023-06-12T00:51:21.073Z,15.66
2023-06-12T00:52:26.497Z,15.64
2023-06-12T00:53:27.992Z,15.62
2023-06-12T00:54:30.409Z,15.61
2023-06-12T00:55:32.463Z,15.59
2023-06-12T00:56:33.923Z,15.58
2023-06-12T00:57:37.315Z,15.56
2023-06-12T00:58:40.056Z,15.55
2023-06-12T00:59:42.176Z,15.53
2023-06-12T01:00:43.910Z,15.52
2023-06-12T01:01:45.474Z,15.52
2023-06-12T01:02:54.037Z,15.51
2023-06-12T01:03:58.386Z,15.49
2023-06-12T01:05:00.247Z,15.48
2023-06-12T01:06:05.734Z,15.47
2023-06-12T01:07:14.466Z,15.47
2023-06-12T01:08:35.047Z,15.45
2023-06-12T01:10:04.043Z,15.44
2023-06-12T01:11:11.376Z,15.42
2023-06-12T01:12:13.616Z,15.41
2023-06-12T01:13:17.984Z,15.40
2023-06-12T01:14:21.289Z,15.39
2023-06-12T01:15:23.062Z,15.37
2023-06-12T01:16:24.516Z,15.37
2023-06-12T01:17:27.815Z,15.36
2023-06-12T01:18:30.253Z,15.35
2023-06-12T01:19:32.857Z,15.34
2023-06-12T01:20:35.460Z,15.33
2023-06-12T01:21:41.764Z,15.32
2023-06-12T01:23:01.360Z,15.30
2023-06-12T01:24:42.970Z,15.29
2023-06-12T01:26:04.032Z,15.25
2023-06-12T01:27:24.333Z,15.23
2023-06-12T01:28:41.485Z,15.19
2023-06-12T01:30:13.734Z,15.18
2023-06-12T01:32:55.794Z,15.15
2023-06-12T01:34:07.579Z,15.15
2023-06-12T01:35:17.124Z,15.15
2023-06-12T01:36:23.940Z,15.13
2023-06-12T01:37:50.100Z,15.13
2023-06-12T01:39:00.051Z,15.11
2023-06-12T01:40:06.257Z,15.10
2023-06-12T01:41:10.040Z,15.10
2023-06-12T01:42:12.500Z,15.10
2023-06-12T01:43:14.114Z,15.09
2023-06-12T01:44:17.459Z,15.09
2023-06-12T01:45:18.893Z,15.08
2023-06-12T01:46:20.495Z,15.07
2023-06-12T01:47:22.909Z,15.06
2023-06-12T01:48:25.004Z,15.05
2023-06-12T01:49:27.111Z,15.05
2023-06-12T01:50:28.692Z,15.04
2023-06-12T01:51:30.941Z,15.03
2023-06-12T01:52:33.351Z,15.02
2023-06-12T01:53:37.101Z,15.01
2023-06-12T01:54:39.389Z,15.00
2023-06-12T01:55:41.794Z,14.99
2023-06-12T01:56:43.741Z,14.99
2023-06-12T01:57:45.612Z,14.98
2023-06-12T01:58:50.457Z,14.97
2023-06-12T02:00:21.361Z,14.96
2023-06-12T02:01:24.339Z,14.96
2023-06-12T02:02:26.680Z,14.96
2023-06-12T02:03:29.558Z,14.95
2023-06-12T02:04:31.345Z,14.95
2023-06-12T02:05:37.527Z,14.94
2023-06-12T02:06:38.956Z,14.93
2023-06-12T02:07:40.602Z,14.93
2023-06-12T02:08:42.887Z,14.92
2023-06-12T02:09:47.577Z,14.91
2023-06-12T02:10:50.663Z,14.90
2023-06-12T02:11:52.237Z,14.88
2023-06-12T02:12:53.806Z,14.88
2023-06-12T02:13:55.508Z,14.87
2023-06-12T02:14:57.615Z,14.86
2023-06-12T02:15:59.245Z,14.85
2023-06-12T02:17:04.498Z,14.85
2023-06-12T02:18:07.302Z,14.83
2023-06-12T02:19:08.850Z,14.82
2023-06-12T02:20:11.203Z,14.83
2023-06-12T02:21:15.125Z,14.81
2023-06-12T02:22:17.035Z,14.81
2023-06-12T02:23:18.562Z,14.81
2023-06-12T02:24:21.379Z,14.81
2023-06-12T02:25:22.996Z,14.80
2023-06-12T02:26:25.160Z,14.81
2023-06-12T02:27:26.812Z,14.80
2023-06-12T02:28:28.399Z,14.80
2023-06-12T02:29:30.020Z,14.79
2023-06-12T02:30:31.810Z,14.79
2023-06-12T02:31:34.081Z,14.79
2023-06-12T02:32:35.893Z,14.78
2023-06-12T02:33:40.538Z,14.78
2023-06-12T02:34:42.053Z,14.78
2023-06-12T02:35:43.727Z,14.78
2023-06-12T02:36:47.285Z,14.77
2023-06-12T02:37:53.685Z,14.78
2023-06-12T02:38:56.139Z,14.78
2023-06-12T02:39:57.751Z,14.78
2023-06-12T02:41:00.555Z,14.77
2023-06-12T02:42:02.345Z,14.78
2023-06-12T02:43:05.268Z,14.77
2023-06-12T02:44:07.172Z,14.76
2023-06-12T02:45:09.323Z,14.77
2023-06-12T02:46:10.862Z,14.76
2023-06-12T02:47:12.423Z,14.76
2023-06-12T02:48:14.780Z,14.76
2023-06-12T02:49:16.921Z,14.77
2023-06-12T02:50:18.572Z,14.77
2023-06-12T02:51:28.228Z,14.77
2023-06-12T02:52:30.243Z,14.78
2023-06-12T02:53:32.103Z,14.78
2023-06-12T02:54:33.678Z,14.79
2023-06-12T02:55:40.325Z,14.79
2023-06-12T02:56:45.330Z,14.78
2023-06-12T02:57:47.067Z,14.79
2023-06-12T02:58:48.736Z,14.79
2023-06-12T02:59:50.562Z,14.80
2023-06-12T03:01:00.158Z,14.81
2023-06-12T03:02:01.995Z,14.81
2023-06-12T03:03:29.623Z,14.81
2023-06-12T03:04:33.393Z,14.82
2023-06-12T03:05:36.565Z,14.83
2023-06-12T03:06:38.773Z,14.85
2023-06-12T03:07:40.710Z,14.86
2023-06-12T03:08:45.178Z,14.87
2023-06-12T03:09:47.167Z,14.87
2023-06-12T03:10:49.261Z,14.88
2023-06-12T03:11:52.475Z,14.89
2023-06-12T03:12:54.059Z,14.90
2023-06-12T03:13:55.523Z,14.91
2023-06-12T03:14:58.520Z,14.92
2023-06-12T03:16:00.700Z,14.94
2023-06-12T03:17:02.793Z,14.96
2023-06-12T03:18:04.648Z,14.97
2023-06-12T03:19:06.782Z,14.98
2023-06-12T03:20:09.541Z,14.99
2023-06-12T03:21:11.769Z,15.00
2023-06-12T03:22:13.406Z,15.01
2023-06-12T03:23:16.019Z,15.03
2023-06-12T03:24:17.623Z,15.05
2023-06-12T03:25:19.545Z,15.07
2023-06-12T03:26:21.089Z,15.09
2023-06-12T03:27:23.154Z,15.12
2023-06-12T03:28:24.681Z,15.14
2023-06-12T03:29:26.200Z,15.17
2023-06-12T03:30:27.678Z,15.20
2023-06-12T03:31:29.599Z,15.24
2023-06-12T03:32:32.573Z,15.26
2023-06-12T03:33:36.468Z,15.30
2023-06-12T03:34:39.715Z,15.32
2023-06-12T03:35:41.510Z,15.35
2023-06-12T03:36:44.404Z,15.38
2023-06-12T03:37:47.619Z,15.41
2023-06-12T03:38:50.316Z,15.44
2023-06-12T03:39:52.287Z,15.47
2023-06-12T03:40:54.133Z,15.50
2023-06-12T03:41:57.220Z,15.53
2023-06-12T03:43:04.431Z,15.56
2023-06-12T03:44:06.137Z,15.58
2023-06-12T03:45:10.736Z,15.61
2023-06-12T03:46:12.554Z,15.64
2023-06-12T03:47:14.580Z,15.68
2023-06-12T03:48:16.924Z,15.71
2023-06-12T03:49:18.808Z,15.75
2023-06-12T03:50:22.642Z,15.77
2023-06-12T03:51:24.447Z,15.80
2023-06-12T03:52:28.473Z,15.84
2023-06-12T03:53:30.250Z,15.87
2023-06-12T03:54:31.905Z,15.90
2023-06-12T03:55:34.757Z,15.95
2023-06-12T03:56:36.402Z,15.98
2023-06-12T03:57:38.121Z,16.01
2023-06-12T03:58:39.705Z,16.05
2023-06-12T03:59:41.157Z,16.10
2023-06-12T04:00:48.040Z,16.14
2023-06-12T04:01:49.986Z,16.19
2023-06-12T04:02:54.108Z,16.24
2023-06-12T04:03:56.882Z,16.28
2023-06-12T04:04:58.376Z,16.33
2023-06-12T04:05:59.840Z,16.37
2023-06-12T04:07:01.387Z,16.42
2023-06-12T04:08:03.133Z,16.47
2023-06-12T04:09:05.840Z,16.52
2023-06-12T04:10:11.347Z,16.57
2023-06-12T04:11:15.434Z,16.62
2023-06-12T04:12:17.027Z,16.67
2023-06-12T04:13:18.529Z,16.72
2023-06-12T04:14:20.674Z,16.77
2023-06-12T04:15:22.966Z,16.83
2023-06-12T04:16:24.947Z,16.89
2023-06-12T04:17:26.507Z,16.95
2023-06-12T04:18:27.936Z,17.00
2023-06-12T04:19:29.663Z,17.06
2023-06-12T04:20:32.626Z,17.12
2023-06-12T04:21:34.271Z,17.18
2023-06-12T04:22:36.338Z,17.24
2023-06-12T04:23:41.568Z,17.30
2023-06-12T04:24:43.779Z,17.36
2023-06-12T04:25:45.645Z,17.42
2023-06-12T04:26:49.051Z,17.48
2023-06-12T04:27:50.637Z,17.54
2023-06-12T04:28:53.583Z,17.59
2023-06-12T04:29:57.762Z,17.66
2023-06-12T04:31:00.494Z,17.71
2023-06-12T04:32:02.264Z,17.76
2023-06-12T04:33:04.007Z,17.82
2023-06-12T04:34:06.658Z,17.88
2023-06-12T04:35:08.867Z,17.93
2023-06-12T04:36:13.957Z,17.99
2023-06-12T04:37:18.837Z,18.05
2023-06-12T04:38:20.765Z,18.11
2023-06-12T04:39:23.986Z,18.13
2023-06-12T04:40:27.962Z,18.08
2023-06-12T04:41:33.389Z,17.99
2023-06-12T04:42:36.559Z,17.90
2023-06-12T04:43:39.014Z,17.82
2023-06-12T04:44:40.530Z,17.75
2023-06-12T04:45:44.757Z,17.70
2023-06-12T04:46:47.318Z,17.65
2023-06-12T04:47:50.489Z,17.61
2023-06-12T04:48:52.368Z,17.57
2023-06-12T04:49:58.303Z,17.55
2023-06-12T04:51:00.390Z,17.53
2023-06-12T04:52:03.518Z,17.53
2023-06-12T04:53:06.784Z,17.53
2023-06-12T04:54:10.078Z,17.53
2023-06-12T04:55:11.650Z,17.54
2023-06-12T04:56:13.435Z,17.55
2023-06-12T04:57:16.662Z,17.56
2023-06-12T04:58:18.432Z,17.56
2023-06-12T04:59:19.898Z,17.58
2023-06-12T05:00:21.525Z,17.58
2023-06-12T05:01:23.621Z,17.60
2023-06-12T05:02:25.367Z,17.61
2023-06-12T05:03:29.193Z,17.62
2023-06-12T05:04:31.224Z,17.64
2023-06-12T05:05:33.663Z,17.66
2023-06-12T05:06:38.171Z,17.70
2023-06-12T05:07:41.891Z,17.74
2023-06-12T05:08:43.603Z,17.79
2023-06-12T05:09:45.246Z,17.85
2023-06-12T05:10:46.758Z,17.91
2023-06-12T05:11:48.285Z,17.98
2023-06-12T05:12:50.415Z,18.05
2023-06-12T05:13:51.873Z,18.12
2023-06-12T05:14:53.668Z,18.18
2023-06-12T05:15:55.606Z,18.24
2023-06-12T05:16:59.298Z,18.30
2023-06-12T05:18:01.781Z,18.36
2023-06-12T05:19:04.039Z,18.41
2023-06-12T05:20:09.467Z,18.43
2023-06-12T05:21:13.913Z,18.47
2023-06-12T05:22:16.565Z,18.50
2023-06-12T05:23:18.340Z,18.52
2023-06-12T05:24:20.894Z,18.55
2023-06-12T05:25:22.902Z,18.58
2023-06-12T05:26:25.734Z,18.61
2023-06-12T05:27:27.249Z,18.64
2023-06-12T05:28:28.653Z,18.68
2023-06-12T05:29:30.132Z,18.69
2023-06-12T05:30:31.727Z,18.70
2023-06-12T05:31:34.539Z,18.72
2023-06-12T05:32:36.794Z,18.73
2023-06-12T05:33:40.043Z,18.74
2023-06-12T05:34:43.420Z,18.75
2023-06-12T05:35:45.228Z,18.76
2023-06-12T05:36:46.949Z,18.78
2023-06-12T05:37:48.628Z,18.80
2023-06-12T05:38:50.302Z,18.83
2023-06-12T05:39:53.436Z,18.84
2023-06-12T05:40:55.097Z,18.87
2023-06-12T05:41:57.362Z,18.88
2023-06-12T05:42:59.862Z,18.90
2023-06-12T05:44:04.080Z,18.92
2023-06-12T05:45:06.508Z,18.95
2023-06-12T05:46:08.044Z,18.98
2023-06-12T05:47:11.235Z,19.01
2023-06-12T05:48:13.141Z,19.04
2023-06-12T05:49:14.671Z,19.07
2023-06-12T05:50:16.565Z,19.09
2023-06-12T05:51:18.189Z,19.12
2023-06-12T05:52:20.133Z,19.15
2023-06-12T05:53:22.108Z,19.18
2023-06-12T05:54:23.763Z,19.22
2023-06-12T05:55:30.372Z,19.26
2023-06-12T05:56:33.075Z,19.29
2023-06-12T05:57:35.100Z,19.32
2023-06-12T05:58:36.822Z,19.35
2023-06-12T05:59:38.301Z,19.38
2023-06-12T06:00:44.045Z,19.41
2023-06-12T06:01:51.445Z,19.44
2023-06-12T06:02:53.868Z,19.49
2023-06-12T06:04:04.614Z,19.52
2023-06-12T06:05:10.172Z,19.54
2023-06-12T06:06:13.528Z,19.55
2023-06-12T06:07:18.592Z,19.58
2023-06-12T06:08:22.302Z,19.60
2023-06-12T06:09:24.140Z,19.62
2023-06-12T06:10:27.071Z,19.65
2023-06-12T06:11:28.869Z,19.68
2023-06-12T06:12:30.687Z,19.72
2023-06-12T06:13:32.884Z,19.74
2023-06-12T06:14:34.859Z,19.75
2023-06-12T06:15:37.015Z,19.77
2023-06-12T06:16:53.289Z,19.79
2023-06-12T06:17:57.252Z,19.81
2023-06-12T06:18:58.850Z,19.84
2023-06-12T06:20:00.433Z,19.85
2023-06-12T06:21:01.926Z,19.88
2023-06-12T06:22:05.477Z,19.92
2023-06-12T06:23:07.305Z,19.95
2023-06-12T06:24:10.463Z,19.97
2023-06-12T06:25:14.075Z,19.98
2023-06-12T06:26:16.213Z,20.01
2023-06-12T06:27:18.562Z,20.03
2023-06-12T06:28:20.790Z,20.07
2023-06-12T06:29:22.686Z,20.10
2023-06-12T06:30:25.437Z,20.13
2023-06-12T06:31:28.485Z,20.16
2023-06-12T06:32:30.524Z,20.19
2023-06-12T06:33:32.818Z,20.22
2023-06-12T06:34:34.401Z,20.26
2023-06-12T06:35:35.825Z,20.28
2023-06-12T06:36:37.774Z,20.31
2023-06-12T06:37:39.350Z,20.34
2023-06-12T06:38:40.983Z,20.34
2023-06-12T06:39:42.575Z,20.33
2023-06-12T06:40:44.403Z,20.33
2023-06-12T06:41:45.999Z,20.35
2023-06-12T06:42:47.991Z,20.36
2023-06-12T06:43:55.369Z,20.39
2023-06-12T06:44:59.220Z,20.42
2023-06-12T06:46:00.955Z,20.44
2023-06-12T06:47:04.263Z,20.44
2023-06-12T06:48:07.919Z,20.45
2023-06-12T06:49:09.587Z,20.46
2023-06-12T06:50:11.719Z,20.47
2023-06-12T06:51:13.852Z,20.49
2023-06-12T06:52:17.680Z,20.49
2023-06-12T06:53:19.363Z,20.50
2023-06-12T06:54:20.983Z,20.52
2023-06-12T06:55:22.784Z,20.52
2023-06-12T06:56:24.507Z,20.51
2023-06-12T06:57:26.465Z,20.51
2023-06-12T06:58:27.964Z,20.51
2023-06-12T06:59:29.587Z,20.51
2023-06-12T07:00:31.103Z,20.51
2023-06-12T07:01:33.902Z,20.50
2023-06-12T07:02:35.627Z,20.50
2023-06-12T07:03:37.640Z,20.50
2023-06-12T07:04:40.606Z,20.49
2023-06-12T07:05:42.331Z,20.48
2023-06-12T07:06:44.585Z,20.47
2023-06-12T07:08:00.365Z,20.45
2023-06-12T07:09:05.106Z,20.45
2023-06-12T07:10:08.075Z,20.44
2023-06-12T07:11:10.304Z,20.42
2023-06-12T07:12:12.534Z,20.41
2023-06-12T07:13:14.459Z,20.42
2023-06-12T07:14:21.641Z,20.43
2023-06-12T07:15:27.348Z,20.44
2023-06-12T07:16:30.471Z,20.47
2023-06-12T07:17:33.690Z,20.49
2023-06-12T07:18:35.308Z,20.51
2023-06-12T07:19:37.531Z,20.53
2023-06-12T07:20:39.205Z,20.53
2023-06-12T07:21:40.888Z,20.53
2023-06-12T07:22:42.420Z,20.52
2023-06-12T07:23:45.439Z,20.53
2023-06-12T07:24:47.810Z,20.54
2023-06-12T07:25:50.672Z,20.55
2023-06-12T07:26:53.102Z,20.56
2023-06-12T07:27:55.396Z,20.53
2023-06-12T07:29:00.577Z,20.51
2023-06-12T07:30:03.281Z,20.52
2023-06-12T07:31:05.152Z,20.51
2023-06-12T07:32:06.987Z,20.47
2023-06-12T07:33:10.259Z,20.44
2023-06-12T07:34:12.210Z,20.42
2023-06-12T07:35:15.316Z,20.42
2023-06-12T07:36:17.115Z,20.43
2023-06-12T07:37:21.379Z,20.41
2023-06-12T07:38:23.598Z,20.38
2023-06-12T07:39:25.784Z,20.35
2023-06-12T07:40:27.673Z,20.34
2023-06-12T07:41:29.337Z,20.36
2023-06-12T07:42:33.540Z,20.35
2023-06-12T07:43:35.201Z,20.34
2023-06-12T07:44:38.134Z,20.34
2023-06-12T07:45:40.112Z,20.33
2023-06-12T07:46:43.034Z,20.32
2023-06-12T07:47:46.233Z,20.32
2023-06-12T07:48:48.093Z,20.34
2023-06-12T07:49:49.764Z,20.34
2023-06-12T07:50:51.254Z,20.35
2023-06-12T07:51:54.159Z,20.36
2023-06-12T07:52:56.464Z,20.38
2023-06-12T07:53:58.171Z,20.41
2023-06-12T07:55:00.756Z,20.43
2023-06-12T07:56:02.729Z,20.45
2023-06-12T07:57:06.759Z,20.45
2023-06-12T07:58:08.658Z,20.46
2023-06-12T07:59:11.652Z,20.47
2023-06-12T08:00:17.226Z,20.50
2023-06-12T08:01:22.950Z,20.52
2023-06-12T08:02:29.421Z,20.53
2023-06-12T08:03:32.322Z,20.57
2023-06-12T08:04:35.941Z,20.56
2023-06-12T08:05:38.253Z,20.54
2023-06-12T08:06:45.443Z,20.51
2023-06-12T08:07:46.986Z,20.49
2023-06-12T08:08:48.575Z,20.45
2023-06-12T08:09:52.018Z,20.42
2023-06-12T08:10:54.327Z,20.42
2023-06-12T08:11:55.990Z,20.40
2023-06-12T08:12:57.468Z,20.38
2023-06-12T08:13:59.131Z,20.38
2023-06-12T08:15:03.176Z,20.37
2023-06-12T08:16:05.208Z,20.38
2023-06-12T08:17:07.605Z,20.39
2023-06-12T08:18:11.523Z,20.41
2023-06-12T08:19:13.410Z,20.44
2023-06-12T08:20:15.907Z,20.44
2023-06-12T08:21:19.106Z,20.41
2023-06-12T08:22:20.738Z,20.37
2023-06-12T08:23:22.690Z,20.37
2023-06-12T08:24:25.798Z,20.35
2023-06-12T08:25:27.577Z,20.33
2023-06-12T08:26:30.798Z,20.33
2023-06-12T08:27:32.503Z,20.33
2023-06-12T08:28:35.870Z,20.28
2023-06-12T08:29:40.093Z,20.23
2023-06-12T08:30:42.039Z,20.21
2023-06-12T08:31:43.710Z,20.20
2023-06-12T08:32:46.809Z,20.17
2023-06-12T08:33:49.972Z,20.13
2023-06-12T08:34:51.623Z,20.12
2023-06-12T08:35:53.409Z,20.12
2023-06-12T08:36:55.156Z,20.13
2023-06-12T08:37:56.998Z,20.12
2023-06-12T08:39:00.908Z,20.13
2023-06-12T08:40:02.861Z,20.14
2023-06-12T08:41:05.748Z,20.16
2023-06-12T08:42:15.336Z,20.16
2023-06-12T08:43:17.078Z,20.15
2023-06-12T08:44:22.259Z,20.13
2023-06-12T08:45:27.010Z,20.11
2023-06-12T08:46:31.139Z,20.08
2023-06-12T08:47:35.615Z,20.08
2023-06-12T08:48:37.269Z,20.06
2023-06-12T08:49:38.807Z,20.03
2023-06-12T08:50:43.144Z,20.01
2023-06-12T08:51:47.371Z,20.00
2023-06-12T08:52:50.425Z,19.97
2023-06-12T08:53:52.609Z,19.94
2023-06-12T08:54:55.377Z,19.94
2023-06-12T08:55:57.857Z,19.91
2023-06-12T08:56:59.989Z,19.90
2023-06-12T08:58:02.464Z,19.90
2023-06-12T08:59:04.165Z,19.94
2023-06-12T09:00:13.086Z,19.96
2023-06-12T09:01:15.279Z,19.99
2023-06-12T09:02:19.028Z,20.02
2023-06-12T09:03:21.315Z,20.08
2023-06-12T09:04:41.996Z,20.11
2023-06-12T09:05:44.443Z,20.13
2023-06-12T09:06:48.236Z,20.12
2023-06-12T09:07:50.644Z,20.11
2023-06-12T09:08:52.602Z,20.10
2023-06-12T09:09:57.574Z,20.08
2023-06-12T09:11:03.711Z,20.07
2023-06-12T09:12:08.602Z,20.08
2023-06-12T09:13:11.034Z,20.08
2023-06-12T09:14:12.730Z,20.10
2023-06-12T09:15:19.482Z,20.12
2023-06-12T09:16:21.097Z,20.15
2023-06-12T09:17:28.991Z,20.18
2023-06-12T09:18:31.027Z,20.23
2023-06-12T09:19:43.574Z,20.26
2023-06-12T09:20:45.967Z,20.30
2023-06-12T09:21:47.729Z,20.32
2023-06-12T09:22:52.364Z,20.33
2023-06-12T09:23:56.023Z,20.31
2023-06-12T09:24:57.727Z,20.24
2023-06-12T09:26:14.826Z,20.20
2023-06-12T09:27:22.042Z,20.19
2023-06-12T09:28:26.388Z,20.21
2023-06-12T09:29:32.415Z,20.22
2023-06-12T09:30:38.953Z,20.22
2023-06-12T09:31:41.100Z,20.26
2023-06-12T09:32:43.637Z,20.30
2023-06-12T09:33:45.444Z,20.34
2023-06-12T09:34:48.873Z,20.39
2023-06-12T09:35:51.735Z,20.43
2023-06-12T09:36:54.460Z,20.48
2023-06-12T09:37:59.308Z,20.50
2023-06-12T09:39:00.870Z,20.52
2023-06-12T09:40:13.993Z,20.55
2023-06-12T09:41:21.258Z,20.58
2023-06-12T09:42:22.860Z,20.60
2023-06-12T09:43:28.377Z,20.64
2023-06-12T09:44:31.230Z,20.61
2023-06-12T09:45:32.778Z,20.57
2023-06-12T09:46:34.609Z,20.50
2023-06-12T09:47:43.521Z,20.43
2023-06-12T09:48:45.553Z,20.39
2023-06-12T09:49:47.036Z,20.40
2023-06-12T09:50:48.597Z,20.42
2023-06-12T09:51:51.573Z,20.47
2023-06-12T09:52:59.105Z,20.50
2023-06-12T09:54:01.631Z,20.55
2023-06-12T09:55:06.274Z,20.60
2023-06-12T09:56:09.414Z,20.67
2023-06-12T09:57:13.017Z,20.74
2023-06-12T09:58:15.291Z,20.79
2023-06-12T09:59:18.703Z,20.81
2023-06-12T10:00:21.360Z,20.83
2023-06-12T10:01:26.464Z,20.85
2023-06-12T10:02:28.205Z,20.89
2023-06-12T10:03:31.010Z,20.95
2023-06-12T10:04:41.000Z,20.99
2023-06-12T10:05:47.868Z,21.02
2023-06-12T10:06:50.863Z,21.06
2023-06-12T10:07:54.762Z,21.07
2023-06-12T10:08:57.124Z,21.04
2023-06-12T10:10:02.057Z,21.01
2023-06-12T10:11:04.525Z,20.93
2023-06-12T10:12:07.378Z,20.88
2023-06-12T10:13:09.790Z,20.82
2023-06-12T10:14:12.943Z,20.77
2023-06-12T10:15:16.041Z,20.71
2023-06-12T10:16:18.801Z,20.65
2023-06-12T10:17:22.593Z,20.61
2023-06-12T10:18:25.678Z,20.62
2023-06-12T10:19:27.529Z,20.66
2023-06-12T10:20:30.661Z,20.68
2023-06-12T10:21:32.436Z,20.68
2023-06-12T10:22:33.999Z,20.72
2023-06-12T10:23:37.273Z,20.77
2023-06-12T10:24:40.133Z,20.78
2023-06-12T10:25:42.007Z,20.79
2023-06-12T10:26:44.317Z,20.78
2023-06-12T10:27:46.632Z,20.81
2023-06-12T10:28:48.280Z,20.82
2023-06-12T10:30:00.850Z,20.80
2023-06-12T10:31:29.742Z,20.81
2023-06-12T10:32:32.908Z,20.86
2023-06-12T10:33:37.418Z,20.93
2023-06-12T10:34:45.482Z,21.00
2023-06-12T10:35:48.889Z,21.08
2023-06-12T10:36:50.630Z,21.17
2023-06-12T10:37:52.380Z,21.24
2023-06-12T10:39:07.375Z,21.32
2023-06-12T10:40:10.895Z,21.40
2023-06-12T10:41:12.727Z,21.46
2023-06-12T10:42:14.254Z,21.53
2023-06-12T10:43:21.322Z,21.61
2023-06-12T10:44:39.564Z,21.70
2023-06-12T10:45:56.029Z,21.78
2023-06-12T10:47:01.773Z,21.86
2023-06-12T10:48:06.106Z,21.92
2023-06-12T10:49:08.181Z,21.98
2023-06-12T10:50:09.845Z,22.03
2023-06-12T10:51:11.968Z,22.06
2023-06-12T10:52:20.681Z,22.09
2023-06-12T10:53:29.648Z,22.13
2023-06-12T10:54:31.080Z,22.19
2023-06-12T10:55:39.165Z,22.25
2023-06-12T10:56:58.877Z,22.31
2023-06-12T10:58:06.004Z,22.37
2023-06-12T10:59:14.602Z,22.45
2023-06-12T11:00:18.545Z,22.53
2023-06-12T11:01:20.805Z,22.62
2023-06-12T11:02:22.493Z,22.71
2023-06-12T11:03:29.718Z,22.81
2023-06-12T11:04:38.443Z,22.90
2023-06-12T11:05:52.296Z,22.96
2023-06-12T11:06:54.666Z,23.04
2023-06-12T11:08:04.890Z,23.11
2023-06-12T11:09:12.277Z,23.19
2023-06-12T11:10:14.466Z,23.28
2023-06-12T11:11:17.148Z,23.35
2023-06-12T11:12:18.714Z,23.37
2023-06-12T11:13:27.239Z,23.40
2023-06-12T11:14:32.356Z,23.46
2023-06-12T11:15:45.169Z,23.62
2023-06-12T11:16:46.653Z,23.93
2023-06-12T11:17:49.162Z,24.24
2023-06-12T11:19:09.074Z,24.53
2023-06-12T11:20:11.450Z,24.88
2023-06-12T11:21:13.747Z,25.12
2023-06-12T11:22:15.238Z,25.31
2023-06-12T11:23:16.990Z,25.47
2023-06-12T11:24:18.722Z,25.60
2023-06-12T11:25:20.369Z,25.70
2023-06-12T11:26:22.003Z,25.77
2023-06-12T11:27:23.998Z,25.79
2023-06-12T11:28:26.994Z,25.82
2023-06-12T11:30:43.452Z,25.91
2023-06-12T11:32:01.735Z,25.97
2023-06-12T11:33:17.811Z,26.04
2023-06-12T11:34:19.429Z,26.10
2023-06-12T11:35:20.958Z,26.17
2023-06-12T11:36:22.540Z,26.21
2023-06-12T11:37:26.634Z,26.23
2023-06-12T11:40:37.284Z,26.33
2023-06-12T11:41:38.779Z,26.39
2023-06-12T11:42:41.857Z,26.42
2023-06-12T11:43:44.113Z,26.49
2023-06-12T11:44:50.361Z,26.59
2023-06-12T11:45:53.056Z,26.74
2023-06-12T11:49:25.685Z,27.22
2023-06-12T11:50:27.919Z,27.33
2023-06-12T11:51:30.816Z,27.46
2023-06-12T11:52:34.520Z,27.65
2023-06-12T11:53:36.196Z,27.82
2023-06-12T11:57:17.120Z,28.17
2023-06-12T11:58:21.634Z,28.26
2023-06-12T11:59:34.681Z,28.39
2023-06-12T12:00:37.701Z,28.47
2023-06-12T12:01:41.663Z,28.59
2023-06-12T12:02:46.872Z,28.67
2023-06-12T12:03:49.166Z,28.82
2023-06-12T12:04:51.108Z,28.94
2023-06-12T12:05:52.740Z,29.02
2023-06-12T12:06:55.465Z,29.13
2023-06-12T12:08:00.318Z,29.28
2023-06-12T12:09:02.979Z,29.48
2023-06-12T12:10:09.743Z,29.66
2023-06-12T12:11:21.255Z,29.81
2023-06-12T12:12:23.300Z,29.96
2023-06-12T12:13:24.798Z,30.12
2023-06-12T12:14:27.453Z,30.23
2023-06-12T12:15:31.585Z,30.41
2023-06-12T12:16:40.630Z,30.62
2023-06-12T12:17:43.663Z,30.69
2023-06-12T12:18:45.163Z,30.75
2023-06-12T12:19:48.059Z,30.86
2023-06-12T12:20:50.344Z,30.94
2023-06-12T12:21:52.577Z,31.07
2023-06-12T12:22:59.249Z,31.23
2023-06-12T12:24:00.983Z,31.40
2023-06-12T12:25:03.749Z,31.59
2023-06-12T12:26:08.803Z,31.76
2023-06-12T12:27:13.517Z,31.84
2023-06-12T12:28:15.487Z,31.99
2023-06-12T12:29:23.104Z,32.26
2023-06-12T12:30:24.841Z,32.56
2023-06-12T12:31:26.481Z,32.86
2023-06-12T12:32:27.962Z,33.11
2023-06-12T12:33:29.708Z,33.35
2023-06-12T12:34:31.172Z,33.70
2023-06-12T12:35:32.749Z,33.94
2023-06-12T12:36:34.241Z,34.11
2023-06-12T12:37:35.890Z,34.32
2023-06-12T12:38:37.373Z,34.42
2023-06-12T12:39:38.847Z,34.58
2023-06-12T12:40:40.502Z,34.79
2023-06-12T12:41:41.999Z,34.94
2023-06-12T12:42:48.303Z,35.00
2023-06-12T12:43:49.970Z,35.10
2023-06-12T12:44:51.931Z,35.22
2023-06-12T12:45:53.594Z,35.27
2023-06-12T12:46:55.144Z,35.43
2023-06-12T12:47:56.964Z,35.64
2023-06-12T12:48:58.569Z,35.91
2023-06-12T12:50:05.860Z,36.04
2023-06-12T12:51:11.089Z,36.16
2023-06-12T12:52:28.766Z,36.26
2023-06-12T12:53:35.239Z,36.41
2023-06-12T12:54:36.862Z,36.55
2023-06-12T12:55:38.338Z,36.55
2023-06-12T12:56:40.117Z,36.60
2023-06-12T12:57:44.318Z,36.57
2023-06-12T12:58:45.842Z,36.57
2023-06-12T12:59:48.000Z,36.52
2023-06-12T13:00:51.353Z,36.47
2023-06-12T13:01:53.184Z,36.41
2023-06-12T13:02:54.973Z,36.38
2023-06-12T13:03:56.747Z,36.32
2023-06-12T13:04:58.607Z,36.40
2023-06-12T13:06:00.624Z,36.47
2023-06-12T13:07:02.357Z,36.40
2023-06-12T13:08:04.110Z,36.30
2023-06-12T13:09:05.632Z,36.38
2023-06-12T13:10:09.285Z,36.24
2023-06-12T13:11:10.773Z,36.03
2023-06-12T13:12:12.445Z,35.98
2023-06-12T13:13:15.734Z,35.97
2023-06-12T13:14:18.406Z,35.98
2023-06-12T13:15:20.091Z,36.01
2023-06-12T13:16:21.584Z,36.06
2023-06-12T13:17:23.190Z,36.22
2023-06-12T13:18:24.698Z,36.23
2023-06-12T13:19:28.550Z,36.23
2023-06-12T13:20:30.057Z,36.20
2023-06-12T13:21:31.624Z,36.19
2023-06-12T13:22:33.675Z,36.18
2023-06-12T13:23:35.541Z,36.26
2023-06-12T13:24:37.548Z,36.27
2023-06-12T13:25:39.201Z,36.42
2023-06-12T13:26:40.785Z,36.46
2023-06-12T13:27:42.260Z,36.54
2023-06-12T13:28:43.730Z,36.61
2023-06-12T13:29:45.323Z,36.72
2023-06-12T13:30:46.889Z,36.72
2023-06-12T13:31:49.842Z,36.70
2023-06-12T13:32:51.505Z,36.69
2023-06-12T13:33:52.989Z,36.72
2023-06-12T13:34:55.062Z,36.82
2023-06-12T13:35:56.717Z,36.80
2023-06-12T13:36:58.297Z,36.69
2023-06-12T13:38:00.063Z,36.62
2023-06-12T13:39:01.561Z,36.67
2023-06-12T13:40:04.991Z,36.82
2023-06-12T13:41:06.480Z,36.90
2023-06-12T13:42:08.120Z,36.91
2023-06-12T13:43:09.857Z,36.96
2023-06-12T13:44:11.381Z,37.01
2023-06-12T13:45:13.363Z,37.00
2023-06-12T13:46:15.049Z,37.05
2023-06-12T13:47:16.605Z,37.21
2023-06-12T13:48:18.134Z,37.15